sensor_id;sensor_type;location;lat;lon;timestamp;temperature;humidity
20672;DHT22;10495;50.922;4.760;2023-09-19T00:00:42;17.30;85.90
20672;DHT22;10495;50.922;4.760;2023-09-19T00:03:09;17.30;86.10
20672;DHT22;10495;50.922;4.760;2023-09-19T00:05:36;17.40;85.60
20672;DHT22;10495;50.922;4.760;2023-09-19T00:08:04;17.50;85.30
20672;DHT22;10495;50.922;4.760;2023-09-19T00:10:30;17.40;85.60
20672;DHT22;10495;50.922;4.760;2023-09-19T00:12:57;17.30;85.50
20672;DHT22;10495;50.922;4.760;2023-09-19T00:15:27;17.30;85.40
20672;DHT22;10495;50.922;4.760;2023-09-19T00:17:56;17.30;85.50
20672;DHT22;10495;50.922;4.760;2023-09-19T00:20:22;17.20;85.70
20672;DHT22;10495;50.922;4.760;2023-09-19T00:22:50;17.40;85.30
20672;DHT22;10495;50.922;4.760;2023-09-19T00:25:21;17.40;84.60
20672;DHT22;10495;50.922;4.760;2023-09-19T00:27:48;17.40;84.60
20672;DHT22;10495;50.922;4.760;2023-09-19T00:30:15;17.40;84.40
20672;DHT22;10495;50.922;4.760;2023-09-19T00:32:42;17.30;84.40
20672;DHT22;10495;50.922;4.760;2023-09-19T00:35:08;17.30;84.40
20672;DHT22;10495;50.922;4.760;2023-09-19T00:37:37;17.20;84.20
20672;DHT22;10495;50.922;4.760;2023-09-19T00:40:06;17.20;83.90
20672;DHT22;10495;50.922;4.760;2023-09-19T00:42:32;17.30;83.90
20672;DHT22;10495;50.922;4.760;2023-09-19T00:44:59;17.30;83.30
20672;DHT22;10495;50.922;4.760;2023-09-19T00:47:28;17.20;83.60
20672;DHT22;10495;50.922;4.760;2023-09-19T00:49:55;17.20;83.60
20672;DHT22;10495;50.922;4.760;2023-09-19T00:52:21;17.20;83.20
20672;DHT22;10495;50.922;4.760;2023-09-19T00:54:49;17.20;83.00
20672;DHT22;10495;50.922;4.760;2023-09-19T00:57:15;17.30;83.20
20672;DHT22;10495;50.922;4.760;2023-09-19T00:59:44;17.20;83.20
20672;DHT22;10495;50.922;4.760;2023-09-19T01:02:10;17.30;82.90
20672;DHT22;10495;50.922;4.760;2023-09-19T01:04:40;17.40;82.00
20672;DHT22;10495;50.922;4.760;2023-09-19T01:07:06;17.30;81.70
20672;DHT22;10495;50.922;4.760;2023-09-19T01:09:33;17.30;81.90
20672;DHT22;10495;50.922;4.760;2023-09-19T01:12:02;17.30;81.90
20672;DHT22;10495;50.922;4.760;2023-09-19T01:14:50;17.20;82.10
20672;DHT22;10495;50.922;4.760;2023-09-19T01:17:31;17.20;81.30
20672;DHT22;10495;50.922;4.760;2023-09-19T01:20:31;17.00;81.90
20672;DHT22;10495;50.922;4.760;2023-09-19T01:31:09;16.90;81.90
20672;DHT22;10495;50.922;4.760;2023-09-19T01:34:01;16.80;82.20
20672;DHT22;10495;50.922;4.760;2023-09-19T01:36:32;16.80;82.60
20672;DHT22;10495;50.922;4.760;2023-09-19T01:39:06;16.70;82.50
20672;DHT22;10495;50.922;4.760;2023-09-19T01:42:21;16.90;82.60
20672;DHT22;10495;50.922;4.760;2023-09-19T01:50:38;16.80;82.80
20672;DHT22;10495;50.922;4.760;2023-09-19T01:53:14;16.80;82.40
20672;DHT22;10495;50.922;4.760;2023-09-19T01:55:48;16.80;82.20
20672;DHT22;10495;50.922;4.760;2023-09-19T02:00:44;16.70;82.30
20672;DHT22;10495;50.922;4.760;2023-09-19T02:03:12;16.60;82.40
20672;DHT22;10495;50.922;4.760;2023-09-19T02:05:39;16.60;82.30
20672;DHT22;10495;50.922;4.760;2023-09-19T02:08:05;16.60;82.50
20672;DHT22;10495;50.922;4.760;2023-09-19T02:10:31;16.50;82.40
20672;DHT22;10495;50.922;4.760;2023-09-19T02:12:56;16.60;82.50
20672;DHT22;10495;50.922;4.760;2023-09-19T02:15:22;16.50;82.60
20672;DHT22;10495;50.922;4.760;2023-09-19T02:17:48;16.40;82.50
20672;DHT22;10495;50.922;4.760;2023-09-19T02:20:13;16.40;82.90
20672;DHT22;10495;50.922;4.760;2023-09-19T02:22:42;16.50;82.70
20672;DHT22;10495;50.922;4.760;2023-09-19T02:25:08;16.40;82.70
20672;DHT22;10495;50.922;4.760;2023-09-19T02:27:34;16.40;83.10
20672;DHT22;10495;50.922;4.760;2023-09-19T02:30:00;16.20;83.30
20672;DHT22;10495;50.922;4.760;2023-09-19T02:32:29;16.40;84.00
20672;DHT22;10495;50.922;4.760;2023-09-19T02:34:59;16.30;83.30
20672;DHT22;10495;50.922;4.760;2023-09-19T02:37:25;16.30;83.40
20672;DHT22;10495;50.922;4.760;2023-09-19T02:39:50;16.30;83.40
20672;DHT22;10495;50.922;4.760;2023-09-19T02:42:16;16.30;83.40
20672;DHT22;10495;50.922;4.760;2023-09-19T02:44:41;16.30;83.80
20672;DHT22;10495;50.922;4.760;2023-09-19T02:47:07;16.40;83.70
20672;DHT22;10495;50.922;4.760;2023-09-19T02:49:33;16.40;83.60
20672;DHT22;10495;50.922;4.760;2023-09-19T02:51:58;16.40;83.80
20672;DHT22;10495;50.922;4.760;2023-09-19T02:54:24;16.40;83.70
20672;DHT22;10495;50.922;4.760;2023-09-19T02:56:50;16.50;83.20
20672;DHT22;10495;50.922;4.760;2023-09-19T02:59:16;16.40;83.60
20672;DHT22;10495;50.922;4.760;2023-09-19T03:01:45;16.60;83.10
20672;DHT22;10495;50.922;4.760;2023-09-19T03:04:13;16.70;83.20
20672;DHT22;10495;50.922;4.760;2023-09-19T03:06:39;16.80;82.70
20672;DHT22;10495;50.922;4.760;2023-09-19T03:09:05;16.90;82.00
20672;DHT22;10495;50.922;4.760;2023-09-19T03:11:38;16.80;82.50
20672;DHT22;10495;50.922;4.760;2023-09-19T03:14:05;16.70;82.10
20672;DHT22;10495;50.922;4.760;2023-09-19T03:16:31;16.90;82.00
20672;DHT22;10495;50.922;4.760;2023-09-19T03:18:57;16.80;81.70
20672;DHT22;10495;50.922;4.760;2023-09-19T03:21:24;16.60;82.60
20672;DHT22;10495;50.922;4.760;2023-09-19T03:23:50;16.60;82.30
20672;DHT22;10495;50.922;4.760;2023-09-19T03:26:16;16.70;82.60
20672;DHT22;10495;50.922;4.760;2023-09-19T03:28:42;16.60;82.40
20672;DHT22;10495;50.922;4.760;2023-09-19T03:31:09;16.50;82.70
20672;DHT22;10495;50.922;4.760;2023-09-19T03:33:34;16.40;82.90
20672;DHT22;10495;50.922;4.760;2023-09-19T03:36:01;16.60;82.60
20672;DHT22;10495;50.922;4.760;2023-09-19T03:38:30;16.60;82.50
20672;DHT22;10495;50.922;4.760;2023-09-19T03:40:56;16.60;82.20
20672;DHT22;10495;50.922;4.760;2023-09-19T03:43:22;16.50;82.80
20672;DHT22;10495;50.922;4.760;2023-09-19T03:45:47;16.50;82.80
20672;DHT22;10495;50.922;4.760;2023-09-19T03:48:14;16.60;82.60
20672;DHT22;10495;50.922;4.760;2023-09-19T03:50:40;16.60;82.90
20672;DHT22;10495;50.922;4.760;2023-09-19T03:53:05;16.60;82.60
20672;DHT22;10495;50.922;4.760;2023-09-19T03:55:34;16.60;82.50
20672;DHT22;10495;50.922;4.760;2023-09-19T03:58:04;16.60;82.80
20672;DHT22;10495;50.922;4.760;2023-09-19T04:00:30;16.80;83.60
20672;DHT22;10495;50.922;4.760;2023-09-19T04:02:55;16.70;83.90
20672;DHT22;10495;50.922;4.760;2023-09-19T04:05:23;16.70;84.30
20672;DHT22;10495;50.922;4.760;2023-09-19T04:07:49;16.60;84.50
20672;DHT22;10495;50.922;4.760;2023-09-19T04:10:15;16.60;84.40
20672;DHT22;10495;50.922;4.760;2023-09-19T04:12:53;16.60;84.30
20672;DHT22;10495;50.922;4.760;2023-09-19T04:15:19;16.50;84.30
20672;DHT22;10495;50.922;4.760;2023-09-19T04:17:45;16.40;84.50
20672;DHT22;10495;50.922;4.760;2023-09-19T04:20:11;16.50;84.30
20672;DHT22;10495;50.922;4.760;2023-09-19T04:22:38;16.40;84.60
20672;DHT22;10495;50.922;4.760;2023-09-19T04:25:05;16.20;85.10
20672;DHT22;10495;50.922;4.760;2023-09-19T04:27:32;16.20;86.10
20672;DHT22;10495;50.922;4.760;2023-09-19T04:29:58;16.20;85.40
20672;DHT22;10495;50.922;4.760;2023-09-19T04:32:28;16.10;85.80
20672;DHT22;10495;50.922;4.760;2023-09-19T04:34:53;16.10;85.90
20672;DHT22;10495;50.922;4.760;2023-09-19T04:37:19;16.10;86.30
20672;DHT22;10495;50.922;4.760;2023-09-19T04:39:46;16.10;86.50
20672;DHT22;10495;50.922;4.760;2023-09-19T04:42:13;16.00;86.60
20672;DHT22;10495;50.922;4.760;2023-09-19T04:44:39;15.90;87.30
20672;DHT22;10495;50.922;4.760;2023-09-19T04:47:05;15.90;87.70
20672;DHT22;10495;50.922;4.760;2023-09-19T04:49:31;15.80;88.10
20672;DHT22;10495;50.922;4.760;2023-09-19T04:51:57;15.90;88.00
20672;DHT22;10495;50.922;4.760;2023-09-19T04:54:22;15.80;88.30
20672;DHT22;10495;50.922;4.760;2023-09-19T04:56:48;15.80;88.20
20672;DHT22;10495;50.922;4.760;2023-09-19T04:59:14;15.70;88.30
20672;DHT22;10495;50.922;4.760;2023-09-19T05:01:41;15.70;88.40
20672;DHT22;10495;50.922;4.760;2023-09-19T05:04:06;15.70;88.50
20672;DHT22;10495;50.922;4.760;2023-09-19T05:06:32;15.70;88.40
20672;DHT22;10495;50.922;4.760;2023-09-19T05:08:59;15.70;88.60
20672;DHT22;10495;50.922;4.760;2023-09-19T05:11:26;15.80;88.50
20672;DHT22;10495;50.922;4.760;2023-09-19T05:13:52;15.70;89.10
20672;DHT22;10495;50.922;4.760;2023-09-19T05:16:20;15.80;88.60
20672;DHT22;10495;50.922;4.760;2023-09-19T05:18:46;15.80;88.10
20672;DHT22;10495;50.922;4.760;2023-09-19T05:21:11;15.80;88.20
20672;DHT22;10495;50.922;4.760;2023-09-19T05:23:38;15.90;87.90
20672;DHT22;10495;50.922;4.760;2023-09-19T05:26:04;15.80;88.10
20672;DHT22;10495;50.922;4.760;2023-09-19T05:28:30;15.70;88.80
20672;DHT22;10495;50.922;4.760;2023-09-19T05:31:00;15.70;88.40
20672;DHT22;10495;50.922;4.760;2023-09-19T05:33:27;15.80;88.40
20672;DHT22;10495;50.922;4.760;2023-09-19T05:35:52;15.90;88.10
20672;DHT22;10495;50.922;4.760;2023-09-19T05:38:19;15.80;88.10
20672;DHT22;10495;50.922;4.760;2023-09-19T05:40:45;15.90;88.10
20672;DHT22;10495;50.922;4.760;2023-09-19T05:43:11;16.10;87.80
20672;DHT22;10495;50.922;4.760;2023-09-19T05:45:37;16.10;87.70
20672;DHT22;10495;50.922;4.760;2023-09-19T05:48:13;16.00;87.80
20672;DHT22;10495;50.922;4.760;2023-09-19T05:50:41;15.80;88.30
20672;DHT22;10495;50.922;4.760;2023-09-19T05:53:07;15.80;88.50
20672;DHT22;10495;50.922;4.760;2023-09-19T05:55:33;15.70;88.60
20672;DHT22;10495;50.922;4.760;2023-09-19T05:57:59;15.90;88.60
20672;DHT22;10495;50.922;4.760;2023-09-19T06:00:25;15.90;88.60
20672;DHT22;10495;50.922;4.760;2023-09-19T06:02:57;16.00;87.80
20672;DHT22;10495;50.922;4.760;2023-09-19T06:05:25;15.90;88.70
20672;DHT22;10495;50.922;4.760;2023-09-19T06:07:52;15.80;88.90
20672;DHT22;10495;50.922;4.760;2023-09-19T06:10:18;15.90;88.80
20672;DHT22;10495;50.922;4.760;2023-09-19T06:12:46;15.90;88.40
20672;DHT22;10495;50.922;4.760;2023-09-19T06:15:13;16.00;88.70
20672;DHT22;10495;50.922;4.760;2023-09-19T06:17:47;16.10;88.20
20672;DHT22;10495;50.922;4.760;2023-09-19T06:20:14;16.10;88.70
20672;DHT22;10495;50.922;4.760;2023-09-19T06:22:41;16.30;88.10
20672;DHT22;10495;50.922;4.760;2023-09-19T06:25:12;16.30;88.10
20672;DHT22;10495;50.922;4.760;2023-09-19T06:27:41;16.30;88.10
20672;DHT22;10495;50.922;4.760;2023-09-19T06:30:09;16.40;87.80
20672;DHT22;10495;50.922;4.760;2023-09-19T06:32:35;16.40;87.80
20672;DHT22;10495;50.922;4.760;2023-09-19T06:35:01;16.50;87.70
20672;DHT22;10495;50.922;4.760;2023-09-19T06:37:28;16.50;88.30
20672;DHT22;10495;50.922;4.760;2023-09-19T06:39:54;16.50;87.60
20672;DHT22;10495;50.922;4.760;2023-09-19T06:42:20;16.80;86.80
20672;DHT22;10495;50.922;4.760;2023-09-19T06:44:48;16.80;86.80
20672;DHT22;10495;50.922;4.760;2023-09-19T06:47:14;17.00;86.70
20672;DHT22;10495;50.922;4.760;2023-09-19T06:49:41;17.10;87.10
20672;DHT22;10495;50.922;4.760;2023-09-19T06:52:09;17.30;86.70
20672;DHT22;10495;50.922;4.760;2023-09-19T06:54:35;17.40;85.90
20672;DHT22;10495;50.922;4.760;2023-09-19T06:57:01;17.40;85.50
20672;DHT22;10495;50.922;4.760;2023-09-19T06:59:27;17.50;85.20
20672;DHT22;10495;50.922;4.760;2023-09-19T07:01:52;17.70;84.70
20672;DHT22;10495;50.922;4.760;2023-09-19T07:04:18;17.80;84.40
20672;DHT22;10495;50.922;4.760;2023-09-19T07:06:49;17.80;84.40
20672;DHT22;10495;50.922;4.760;2023-09-19T07:09:15;18.00;83.00
20672;DHT22;10495;50.922;4.760;2023-09-19T07:11:42;18.00;83.50
20672;DHT22;10495;50.922;4.760;2023-09-19T07:14:08;18.00;83.70
20672;DHT22;10495;50.922;4.760;2023-09-19T07:16:37;17.90;83.70
20672;DHT22;10495;50.922;4.760;2023-09-19T07:19:04;18.10;82.90
20672;DHT22;10495;50.922;4.760;2023-09-19T07:21:29;18.20;82.50
20672;DHT22;10495;50.922;4.760;2023-09-19T07:23:55;18.20;82.60
20672;DHT22;10495;50.922;4.760;2023-09-19T07:26:21;18.30;82.60
20672;DHT22;10495;50.922;4.760;2023-09-19T07:28:46;18.40;82.40
20672;DHT22;10495;50.922;4.760;2023-09-19T07:31:12;18.70;81.60
20672;DHT22;10495;50.922;4.760;2023-09-19T07:33:39;19.00;81.20
20672;DHT22;10495;50.922;4.760;2023-09-19T07:36:05;19.00;80.60
20672;DHT22;10495;50.922;4.760;2023-09-19T07:38:34;19.10;81.20
20672;DHT22;10495;50.922;4.760;2023-09-19T07:41:01;19.40;79.80
20672;DHT22;10495;50.922;4.760;2023-09-19T07:43:28;19.40;79.50
20672;DHT22;10495;50.922;4.760;2023-09-19T07:45:53;19.60;78.60
20672;DHT22;10495;50.922;4.760;2023-09-19T07:48:19;19.80;78.40
20672;DHT22;10495;50.922;4.760;2023-09-19T07:50:44;19.80;77.40
20672;DHT22;10495;50.922;4.760;2023-09-19T07:53:10;19.90;78.50
20672;DHT22;10495;50.922;4.760;2023-09-19T07:55:39;19.90;78.30
20672;DHT22;10495;50.922;4.760;2023-09-19T07:58:06;20.20;77.00
20672;DHT22;10495;50.922;4.760;2023-09-19T08:00:32;20.20;75.90
20672;DHT22;10495;50.922;4.760;2023-09-19T08:03:00;20.40;76.30
20672;DHT22;10495;50.922;4.760;2023-09-19T08:05:26;20.40;76.50
20672;DHT22;10495;50.922;4.760;2023-09-19T08:07:53;20.50;76.90
20672;DHT22;10495;50.922;4.760;2023-09-19T08:10:19;20.60;75.40
20672;DHT22;10495;50.922;4.760;2023-09-19T08:12:47;20.80;75.40
20672;DHT22;10495;50.922;4.760;2023-09-19T08:15:21;21.00;73.90
20672;DHT22;10495;50.922;4.760;2023-09-19T08:17:48;21.20;74.40
20672;DHT22;10495;50.922;4.760;2023-09-19T08:20:14;21.10;73.80
20672;DHT22;10495;50.922;4.760;2023-09-19T08:22:49;21.40;73.50
20672;DHT22;10495;50.922;4.760;2023-09-19T08:25:18;21.60;72.90
20672;DHT22;10495;50.922;4.760;2023-09-19T08:27:44;21.60;72.40
20672;DHT22;10495;50.922;4.760;2023-09-19T08:30:14;21.90;71.50
20672;DHT22;10495;50.922;4.760;2023-09-19T08:32:40;21.60;71.30
20672;DHT22;10495;50.922;4.760;2023-09-19T08:35:08;21.70;72.90
20672;DHT22;10495;50.922;4.760;2023-09-19T08:37:35;21.90;73.10
20672;DHT22;10495;50.922;4.760;2023-09-19T08:40:00;22.30;72.00
20672;DHT22;10495;50.922;4.760;2023-09-19T08:42:26;22.30;70.20
20672;DHT22;10495;50.922;4.760;2023-09-19T08:44:52;22.40;71.00
20672;DHT22;10495;50.922;4.760;2023-09-19T08:47:43;22.30;69.20
20672;DHT22;10495;50.922;4.760;2023-09-19T08:50:19;22.30;69.40
20672;DHT22;10495;50.922;4.760;2023-09-19T08:52:51;22.30;69.80
20672;DHT22;10495;50.922;4.760;2023-09-19T08:55:20;22.40;71.30
20672;DHT22;10495;50.922;4.760;2023-09-19T08:57:49;22.70;68.60
20672;DHT22;10495;50.922;4.760;2023-09-19T09:00:15;22.40;70.80
20672;DHT22;10495;50.922;4.760;2023-09-19T09:02:44;22.60;70.10
20672;DHT22;10495;50.922;4.760;2023-09-19T09:05:10;22.70;67.60
20672;DHT22;10495;50.922;4.760;2023-09-19T09:07:37;22.80;68.50
20672;DHT22;10495;50.922;4.760;2023-09-19T09:10:04;22.90;66.30
20672;DHT22;10495;50.922;4.760;2023-09-19T09:12:30;22.70;69.50
20672;DHT22;10495;50.922;4.760;2023-09-19T09:14:56;22.80;68.70
20672;DHT22;10495;50.922;4.760;2023-09-19T09:17:23;22.90;67.20
20672;DHT22;10495;50.922;4.760;2023-09-19T09:19:52;22.70;67.00
20672;DHT22;10495;50.922;4.760;2023-09-19T09:22:18;22.70;68.10
20672;DHT22;10495;50.922;4.760;2023-09-19T09:24:53;22.90;67.20
20672;DHT22;10495;50.922;4.760;2023-09-19T09:27:29;22.70;66.70
20672;DHT22;10495;50.922;4.760;2023-09-19T09:29:55;22.90;66.10
20672;DHT22;10495;50.922;4.760;2023-09-19T09:32:23;22.80;64.90
20672;DHT22;10495;50.922;4.760;2023-09-19T09:34:53;22.70;66.10
20672;DHT22;10495;50.922;4.760;2023-09-19T09:37:20;22.80;66.60
20672;DHT22;10495;50.922;4.760;2023-09-19T09:40:00;22.70;66.30
20672;DHT22;10495;50.922;4.760;2023-09-19T09:42:45;22.90;65.40
20672;DHT22;10495;50.922;4.760;2023-09-19T09:45:22;22.90;65.70
20672;DHT22;10495;50.922;4.760;2023-09-19T09:48:03;22.80;65.40
20672;DHT22;10495;50.922;4.760;2023-09-19T09:50:31;22.80;65.30
20672;DHT22;10495;50.922;4.760;2023-09-19T09:53:26;22.70;64.60
20672;DHT22;10495;50.922;4.760;2023-09-19T09:56:04;22.50;66.10
20672;DHT22;10495;50.922;4.760;2023-09-19T09:58:35;22.60;65.40
20672;DHT22;10495;50.922;4.760;2023-09-19T10:01:03;22.60;65.70
20672;DHT22;10495;50.922;4.760;2023-09-19T10:03:38;22.50;66.60
20672;DHT22;10495;50.922;4.760;2023-09-19T10:06:16;22.50;65.80
20672;DHT22;10495;50.922;4.760;2023-09-19T10:09:00;22.50;65.50
20672;DHT22;10495;50.922;4.760;2023-09-19T10:11:37;22.20;65.50
20672;DHT22;10495;50.922;4.760;2023-09-19T10:14:06;21.80;65.80
20672;DHT22;10495;50.922;4.760;2023-09-19T10:16:35;21.80;66.50
20672;DHT22;10495;50.922;4.760;2023-09-19T10:19:07;21.50;67.50
20672;DHT22;10495;50.922;4.760;2023-09-19T10:21:36;21.70;67.70
20672;DHT22;10495;50.922;4.760;2023-09-19T10:24:03;21.80;66.30
20672;DHT22;10495;50.922;4.760;2023-09-19T10:26:34;21.80;66.60
20672;DHT22;10495;50.922;4.760;2023-09-19T10:29:03;21.60;67.80
20672;DHT22;10495;50.922;4.760;2023-09-19T10:31:32;21.40;68.10
20672;DHT22;10495;50.922;4.760;2023-09-19T10:34:03;21.60;68.50
20672;DHT22;10495;50.922;4.760;2023-09-19T10:36:33;21.50;68.50
20672;DHT22;10495;50.922;4.760;2023-09-19T10:39:02;21.70;67.60
20672;DHT22;10495;50.922;4.760;2023-09-19T10:41:32;21.70;68.20
20672;DHT22;10495;50.922;4.760;2023-09-19T10:44:03;21.70;66.60
20672;DHT22;10495;50.922;4.760;2023-09-19T10:46:31;21.50;67.10
20672;DHT22;10495;50.922;4.760;2023-09-19T10:49:01;21.60;69.30
20672;DHT22;10495;50.922;4.760;2023-09-19T10:51:39;21.40;68.80
20672;DHT22;10495;50.922;4.760;2023-09-19T10:54:10;21.60;68.90
20672;DHT22;10495;50.922;4.760;2023-09-19T10:56:42;21.80;69.30
20672;DHT22;10495;50.922;4.760;2023-09-19T10:59:18;22.00;67.80
20672;DHT22;10495;50.922;4.760;2023-09-19T11:01:45;21.90;67.40
20672;DHT22;10495;50.922;4.760;2023-09-19T11:04:37;21.70;68.20
20672;DHT22;10495;50.922;4.760;2023-09-19T11:07:07;21.60;68.20
20672;DHT22;10495;50.922;4.760;2023-09-19T11:15:07;21.50;69.60
20672;DHT22;10495;50.922;4.760;2023-09-19T11:17:38;21.60;69.90
20672;DHT22;10495;50.922;4.760;2023-09-19T11:30:38;22.00;67.80
20672;DHT22;10495;50.922;4.760;2023-09-19T11:33:17;22.20;69.40
20672;DHT22;10495;50.922;4.760;2023-09-19T11:36:08;22.30;67.50
20672;DHT22;10495;50.922;4.760;2023-09-19T11:46:30;22.10;68.10
20672;DHT22;10495;50.922;4.760;2023-09-19T11:49:05;22.30;68.90
20672;DHT22;10495;50.922;4.760;2023-09-19T11:51:42;22.10;67.90
20672;DHT22;10495;50.922;4.760;2023-09-19T11:54:11;22.30;67.70
20672;DHT22;10495;50.922;4.760;2023-09-19T11:56:49;22.40;67.10
20672;DHT22;10495;50.922;4.760;2023-09-19T11:59:31;22.70;65.60
20672;DHT22;10495;50.922;4.760;2023-09-19T12:02:03;22.30;66.20
20672;DHT22;10495;50.922;4.760;2023-09-19T12:04:39;22.30;68.60
20672;DHT22;10495;50.922;4.760;2023-09-19T12:09:31;21.80;68.50
20672;DHT22;10495;50.922;4.760;2023-09-19T12:11:57;21.80;68.30
20672;DHT22;10495;50.922;4.760;2023-09-19T12:14:24;22.20;67.70
20672;DHT22;10495;50.922;4.760;2023-09-19T12:16:55;22.40;66.70
20672;DHT22;10495;50.922;4.760;2023-09-19T12:19:22;22.30;66.90
20672;DHT22;10495;50.922;4.760;2023-09-19T12:21:56;22.40;66.80
20672;DHT22;10495;50.922;4.760;2023-09-19T12:24:27;22.40;67.10
20672;DHT22;10495;50.922;4.760;2023-09-19T12:27:03;22.20;66.00
20672;DHT22;10495;50.922;4.760;2023-09-19T12:29:48;22.00;68.00
20672;DHT22;10495;50.922;4.760;2023-09-19T12:32:14;21.90;68.20
20672;DHT22;10495;50.922;4.760;2023-09-19T12:34:42;22.00;68.20
20672;DHT22;10495;50.922;4.760;2023-09-19T12:37:12;22.00;70.30
20672;DHT22;10495;50.922;4.760;2023-09-19T12:39:42;22.20;69.60
20672;DHT22;10495;50.922;4.760;2023-09-19T12:42:10;22.30;66.60
20672;DHT22;10495;50.922;4.760;2023-09-19T12:44:37;22.20;66.80
20672;DHT22;10495;50.922;4.760;2023-09-19T12:47:16;22.00;69.60
20672;DHT22;10495;50.922;4.760;2023-09-19T12:55:26;21.80;69.30
20672;DHT22;10495;50.922;4.760;2023-09-19T12:58:00;22.10;68.30
20672;DHT22;10495;50.922;4.760;2023-09-19T13:00:41;21.80;69.00
20672;DHT22;10495;50.922;4.760;2023-09-19T13:03:18;21.90;69.40
20672;DHT22;10495;50.922;4.760;2023-09-19T13:05:57;22.00;69.20
20672;DHT22;10495;50.922;4.760;2023-09-19T13:08:35;22.20;69.50
20672;DHT22;10495;50.922;4.760;2023-09-19T13:11:08;22.40;69.40
20672;DHT22;10495;50.922;4.760;2023-09-19T13:13:46;22.30;67.70
20672;DHT22;10495;50.922;4.760;2023-09-19T13:16:16;22.20;68.80
20672;DHT22;10495;50.922;4.760;2023-09-19T13:18:53;22.20;69.30
20672;DHT22;10495;50.922;4.760;2023-09-19T13:21:32;22.30;68.00
20672;DHT22;10495;50.922;4.760;2023-09-19T13:24:22;22.30;68.90
20672;DHT22;10495;50.922;4.760;2023-09-19T13:26:51;22.10;68.50
20672;DHT22;10495;50.922;4.760;2023-09-19T13:29:16;22.20;68.10
20672;DHT22;10495;50.922;4.760;2023-09-19T13:31:50;22.10;68.20
20672;DHT22;10495;50.922;4.760;2023-09-19T13:34:18;21.80;68.40
20672;DHT22;10495;50.922;4.760;2023-09-19T13:36:45;21.80;69.00
20672;DHT22;10495;50.922;4.760;2023-09-19T13:39:16;21.60;69.70
20672;DHT22;10495;50.922;4.760;2023-09-19T13:41:45;21.60;70.60
20672;DHT22;10495;50.922;4.760;2023-09-19T13:44:11;21.60;69.70
20672;DHT22;10495;50.922;4.760;2023-09-19T13:46:38;21.60;69.40
20672;DHT22;10495;50.922;4.760;2023-09-19T13:49:03;21.50;70.40
20672;DHT22;10495;50.922;4.760;2023-09-19T13:51:31;21.70;69.80
20672;DHT22;10495;50.922;4.760;2023-09-19T13:53:57;21.80;70.00
20672;DHT22;10495;50.922;4.760;2023-09-19T13:56:22;21.90;69.40
20672;DHT22;10495;50.922;4.760;2023-09-19T13:58:48;21.80;69.50
20672;DHT22;10495;50.922;4.760;2023-09-19T14:01:14;21.90;69.60
20672;DHT22;10495;50.922;4.760;2023-09-19T14:03:40;21.90;69.30
20672;DHT22;10495;50.922;4.760;2023-09-19T14:06:06;21.90;69.60
20672;DHT22;10495;50.922;4.760;2023-09-19T14:08:32;22.10;70.20
20672;DHT22;10495;50.922;4.760;2023-09-19T14:11:01;22.10;69.10
20672;DHT22;10495;50.922;4.760;2023-09-19T14:13:30;22.20;69.40
20672;DHT22;10495;50.922;4.760;2023-09-19T14:15:56;22.30;70.30
20672;DHT22;10495;50.922;4.760;2023-09-19T14:18:21;22.40;68.50
20672;DHT22;10495;50.922;4.760;2023-09-19T14:20:47;22.40;69.60
20672;DHT22;10495;50.922;4.760;2023-09-19T14:23:13;22.20;70.60
20672;DHT22;10495;50.922;4.760;2023-09-19T14:25:38;22.20;68.20
20672;DHT22;10495;50.922;4.760;2023-09-19T14:28:05;22.20;68.70
20672;DHT22;10495;50.922;4.760;2023-09-19T14:30:33;22.20;67.80
20672;DHT22;10495;50.922;4.760;2023-09-19T14:32:59;22.00;68.30
20672;DHT22;10495;50.922;4.760;2023-09-19T14:35:24;22.00;69.30
20672;DHT22;10495;50.922;4.760;2023-09-19T14:37:50;22.00;69.20
20672;DHT22;10495;50.922;4.760;2023-09-19T14:40:16;22.10;68.60
20672;DHT22;10495;50.922;4.760;2023-09-19T14:42:43;21.90;69.30
20672;DHT22;10495;50.922;4.760;2023-09-19T14:45:11;22.00;70.60
20672;DHT22;10495;50.922;4.760;2023-09-19T14:47:37;22.10;69.90
20672;DHT22;10495;50.922;4.760;2023-09-19T14:50:03;22.00;69.80
20672;DHT22;10495;50.922;4.760;2023-09-19T14:52:34;22.30;68.70
20672;DHT22;10495;50.922;4.760;2023-09-19T14:55:01;22.30;68.60
20672;DHT22;10495;50.922;4.760;2023-09-19T14:57:27;22.30;69.00
20672;DHT22;10495;50.922;4.760;2023-09-19T14:59:53;22.40;68.60
20672;DHT22;10495;50.922;4.760;2023-09-19T15:02:19;22.50;69.10
20672;DHT22;10495;50.922;4.760;2023-09-19T15:04:46;22.60;67.30
20672;DHT22;10495;50.922;4.760;2023-09-19T15:07:13;22.70;67.40
20672;DHT22;10495;50.922;4.760;2023-09-19T15:09:43;22.60;68.60
20672;DHT22;10495;50.922;4.760;2023-09-19T15:12:09;22.50;68.90
20672;DHT22;10495;50.922;4.760;2023-09-19T15:14:40;22.50;68.80
20672;DHT22;10495;50.922;4.760;2023-09-19T15:17:06;22.80;67.70
20672;DHT22;10495;50.922;4.760;2023-09-19T15:19:31;22.60;67.40
20672;DHT22;10495;50.922;4.760;2023-09-19T15:21:57;22.30;67.70
20672;DHT22;10495;50.922;4.760;2023-09-19T15:24:23;22.40;68.10
20672;DHT22;10495;50.922;4.760;2023-09-19T15:26:52;22.00;68.70
20672;DHT22;10495;50.922;4.760;2023-09-19T15:29:17;21.90;68.80
20672;DHT22;10495;50.922;4.760;2023-09-19T15:31:45;22.00;69.00
20672;DHT22;10495;50.922;4.760;2023-09-19T15:34:11;21.90;68.60
20672;DHT22;10495;50.922;4.760;2023-09-19T15:36:39;21.90;69.40
20672;DHT22;10495;50.922;4.760;2023-09-19T15:39:08;22.00;68.50
20672;DHT22;10495;50.922;4.760;2023-09-19T15:41:39;22.00;68.50
20672;DHT22;10495;50.922;4.760;2023-09-19T15:44:17;22.10;68.50
20672;DHT22;10495;50.922;4.760;2023-09-19T15:46:44;22.00;69.00
20672;DHT22;10495;50.922;4.760;2023-09-19T15:49:11;21.90;68.30
20672;DHT22;10495;50.922;4.760;2023-09-19T15:51:37;21.80;68.40
20672;DHT22;10495;50.922;4.760;2023-09-19T15:54:23;21.80;68.90
20672;DHT22;10495;50.922;4.760;2023-09-19T15:56:50;21.60;70.00
20672;DHT22;10495;50.922;4.760;2023-09-19T15:59:17;21.50;69.80
20672;DHT22;10495;50.922;4.760;2023-09-19T16:01:43;21.50;69.30
20672;DHT22;10495;50.922;4.760;2023-09-19T16:04:10;21.40;69.30
20672;DHT22;10495;50.922;4.760;2023-09-19T16:06:36;21.50;69.40
20672;DHT22;10495;50.922;4.760;2023-09-19T16:09:03;21.30;69.80
20672;DHT22;10495;50.922;4.760;2023-09-19T16:11:31;21.30;70.90
20672;DHT22;10495;50.922;4.760;2023-09-19T16:13:58;21.40;69.90
20672;DHT22;10495;50.922;4.760;2023-09-19T16:16:25;21.40;69.70
20672;DHT22;10495;50.922;4.760;2023-09-19T16:18:57;21.30;70.10
20672;DHT22;10495;50.922;4.760;2023-09-19T16:21:25;21.30;70.60
20672;DHT22;10495;50.922;4.760;2023-09-19T16:23:55;21.30;70.30
20672;DHT22;10495;50.922;4.760;2023-09-19T16:26:22;21.40;70.20
20672;DHT22;10495;50.922;4.760;2023-09-19T16:28:50;21.40;69.60